createdAt,value
2022-12-23T08:19:48.708Z,70.60
2022-12-23T08:22:51.266Z,159.55
2022-12-23T08:26:01.298Z,140.70
2022-12-23T09:02:54.625Z,79.50
2022-12-23T09:05:57.244Z,84.13
2022-12-23T09:08:59.921Z,96.72
2022-12-23T10:07:05.019Z,79.65
2022-12-23T10:10:17.279Z,64.95
2022-12-23T10:13:26.458Z,56.15
2022-12-23T10:16:32.443Z,50.33
2022-12-23T10:19:41.850Z,54.83
2022-12-23T10:22:46.760Z,50.30
2022-12-23T10:40:53.416Z,51.08
2022-12-23T10:44:15.807Z,44.70
2022-12-23T10:47:27.929Z,44.65
2022-12-23T10:50:47.597Z,37.97
2022-12-23T11:09:48.972Z,48.33
2022-12-23T11:12:53.836Z,50.75
2022-12-23T11:16:11.827Z,42.80
2022-12-23T11:19:16.743Z,53.15
2022-12-23T11:22:25.130Z,42.35
2022-12-23T11:25:32.513Z,41.75
2022-12-23T11:28:40.543Z,37.17
2022-12-23T11:31:44.866Z,37.50
2022-12-23T11:34:49.111Z,39.80
2022-12-23T11:37:51.741Z,34.45
2022-12-23T11:40:55.723Z,36.15
2022-12-23T11:44:02.491Z,30.00
2022-12-23T11:47:26.120Z,28.48
2022-12-23T11:50:35.175Z,25.90
2022-12-23T11:53:37.731Z,28.40
2022-12-23T11:56:42.681Z,23.52
2022-12-23T11:59:48.896Z,22.73
2022-12-23T12:02:55.705Z,23.08
2022-12-23T12:06:01.225Z,24.83
2022-12-23T12:09:06.746Z,23.02
2022-12-23T12:12:16.362Z,21.23
2022-12-23T12:15:30.676Z,22.60
2022-12-23T12:18:34.849Z,23.77
2022-12-23T12:21:39.405Z,22.48
2022-12-23T12:24:45.464Z,26.13
2022-12-23T12:27:55.442Z,22.20
2022-12-23T12:31:04.153Z,26.48
2022-12-23T12:34:18.108Z,23.58
2022-12-23T12:37:34.240Z,24.42
2022-12-23T12:40:41.864Z,22.17
2022-12-23T12:43:51.914Z,22.67
2022-12-23T12:46:59.322Z,23.35
